sensor_id;sensor_type;location;lat;lon;timestamp;P1;durP1;ratioP1;P2;durP2;ratioP2
20824;SDS011;10573;50.936;6.978;2024-03-08T00:01:35;23.25;;;16.10;;
20824;SDS011;10573;50.936;6.978;2024-03-08T00:04:00;24.63;;;15.77;;
20824;SDS011;10573;50.936;6.978;2024-03-08T00:06:26;24.40;;;16.80;;
20824;SDS011;10573;50.936;6.978;2024-03-08T00:08:51;24.27;;;16.85;;
20824;SDS011;10573;50.936;6.978;2024-03-08T00:11:16;23.03;;;15.97;;
20824;SDS011;10573;50.936;6.978;2024-03-08T00:13:42;24.80;;;16.00;;
20824;SDS011;10573;50.936;6.978;2024-03-08T00:16:07;24.58;;;16.13;;
20824;SDS011;10573;50.936;6.978;2024-03-08T00:18:34;22.85;;;16.58;;
20824;SDS011;10573;50.936;6.978;2024-03-08T00:20:59;25.00;;;16.33;;
20824;SDS011;10573;50.936;6.978;2024-03-08T00:23:25;23.20;;;16.57;;
20824;SDS011;10573;50.936;6.978;2024-03-08T00:25:50;25.77;;;16.97;;
20824;SDS011;10573;50.936;6.978;2024-03-08T00:28:16;23.88;;;16.98;;
20824;SDS011;10573;50.936;6.978;2024-03-08T00:30:43;24.48;;;16.83;;
20824;SDS011;10573;50.936;6.978;2024-03-08T00:33:10;25.60;;;17.38;;
20824;SDS011;10573;50.936;6.978;2024-03-08T00:35:36;24.50;;;16.93;;
20824;SDS011;10573;50.936;6.978;2024-03-08T00:38:01;25.63;;;17.13;;
20824;SDS011;10573;50.936;6.978;2024-03-08T00:40:27;24.65;;;17.40;;
20824;SDS011;10573;50.936;6.978;2024-03-08T00:42:54;26.67;;;18.30;;
20824;SDS011;10573;50.936;6.978;2024-03-08T00:45:19;25.57;;;17.23;;
20824;SDS011;10573;50.936;6.978;2024-03-08T00:47:44;24.63;;;17.25;;
20824;SDS011;10573;50.936;6.978;2024-03-08T00:50:10;29.30;;;17.73;;
20824;SDS011;10573;50.936;6.978;2024-03-08T00:52:36;28.77;;;17.53;;
20824;SDS011;10573;50.936;6.978;2024-03-08T00:55:02;25.88;;;17.05;;
20824;SDS011;10573;50.936;6.978;2024-03-08T00:57:28;25.03;;;17.63;;
20824;SDS011;10573;50.936;6.978;2024-03-08T00:59:53;28.93;;;17.93;;
20824;SDS011;10573;50.936;6.978;2024-03-08T01:02:19;26.77;;;17.33;;
20824;SDS011;10573;50.936;6.978;2024-03-08T01:04:46;24.70;;;17.73;;
20824;SDS011;10573;50.936;6.978;2024-03-08T01:07:12;25.90;;;18.17;;
20824;SDS011;10573;50.936;6.978;2024-03-08T01:09:37;23.87;;;17.27;;
20824;SDS011;10573;50.936;6.978;2024-03-08T01:12:03;25.90;;;17.27;;
20824;SDS011;10573;50.936;6.978;2024-03-08T01:14:28;26.25;;;18.45;;
20824;SDS011;10573;50.936;6.978;2024-03-08T01:16:55;29.83;;;19.17;;
20824;SDS011;10573;50.936;6.978;2024-03-08T01:19:20;23.03;;;17.67;;
20824;SDS011;10573;50.936;6.978;2024-03-08T01:21:46;27.60;;;18.47;;
20824;SDS011;10573;50.936;6.978;2024-03-08T01:24:11;25.20;;;18.05;;
20824;SDS011;10573;50.936;6.978;2024-03-08T01:26:37;26.55;;;18.10;;
20824;SDS011;10573;50.936;6.978;2024-03-08T01:29:03;27.73;;;18.47;;
20824;SDS011;10573;50.936;6.978;2024-03-08T01:31:29;28.20;;;18.50;;
20824;SDS011;10573;50.936;6.978;2024-03-08T01:33:55;28.35;;;18.55;;
20824;SDS011;10573;50.936;6.978;2024-03-08T01:36:21;30.10;;;17.90;;
20824;SDS011;10573;50.936;6.978;2024-03-08T01:38:46;28.57;;;18.27;;
20824;SDS011;10573;50.936;6.978;2024-03-08T01:41:12;26.85;;;18.85;;
20824;SDS011;10573;50.936;6.978;2024-03-08T01:43:42;27.52;;;18.65;;
20824;SDS011;10573;50.936;6.978;2024-03-08T01:46:08;26.83;;;19.20;;
20824;SDS011;10573;50.936;6.978;2024-03-08T01:48:34;27.65;;;18.60;;
20824;SDS011;10573;50.936;6.978;2024-03-08T01:51:00;28.13;;;19.30;;
20824;SDS011;10573;50.936;6.978;2024-03-08T01:53:28;27.33;;;18.23;;
20824;SDS011;10573;50.936;6.978;2024-03-08T01:55:58;29.08;;;18.17;;
20824;SDS011;10573;50.936;6.978;2024-03-08T01:58:24;30.73;;;18.98;;
20824;SDS011;10573;50.936;6.978;2024-03-08T02:00:53;27.85;;;19.27;;
20824;SDS011;10573;50.936;6.978;2024-03-08T02:03:19;27.98;;;19.60;;
20824;SDS011;10573;50.936;6.978;2024-03-08T02:05:46;27.92;;;18.58;;
20824;SDS011;10573;50.936;6.978;2024-03-08T02:08:11;25.87;;;17.97;;
20824;SDS011;10573;50.936;6.978;2024-03-08T02:10:43;27.85;;;18.60;;
20824;SDS011;10573;50.936;6.978;2024-03-08T02:13:10;30.63;;;18.77;;
20824;SDS011;10573;50.936;6.978;2024-03-08T02:15:58;29.07;;;19.07;;
20824;SDS011;10573;50.936;6.978;2024-03-08T02:18:25;30.73;;;19.03;;
20824;SDS011;10573;50.936;6.978;2024-03-08T02:23:17;27.50;;;19.02;;
20824;SDS011;10573;50.936;6.978;2024-03-08T02:25:43;25.98;;;18.48;;
20824;SDS011;10573;50.936;6.978;2024-03-08T02:28:10;29.03;;;18.83;;
20824;SDS011;10573;50.936;6.978;2024-03-08T02:30:36;30.20;;;19.05;;
20824;SDS011;10573;50.936;6.978;2024-03-08T02:33:02;30.53;;;19.40;;
20824;SDS011;10573;50.936;6.978;2024-03-08T02:35:27;30.93;;;19.23;;
20824;SDS011;10573;50.936;6.978;2024-03-08T02:37:53;27.33;;;19.17;;
20824;SDS011;10573;50.936;6.978;2024-03-08T02:40:18;28.83;;;19.50;;
20824;SDS011;10573;50.936;6.978;2024-03-08T02:42:43;28.93;;;18.77;;
20824;SDS011;10573;50.936;6.978;2024-03-08T02:45:09;29.52;;;19.70;;
20824;SDS011;10573;50.936;6.978;2024-03-08T02:47:37;30.52;;;19.67;;
20824;SDS011;10573;50.936;6.978;2024-03-08T02:50:02;28.60;;;19.30;;
20824;SDS011;10573;50.936;6.978;2024-03-08T02:52:28;29.45;;;19.55;;
20824;SDS011;10573;50.936;6.978;2024-03-08T02:54:54;30.67;;;19.40;;
20824;SDS011;10573;50.936;6.978;2024-03-08T02:57:19;27.27;;;18.83;;
20824;SDS011;10573;50.936;6.978;2024-03-08T02:59:44;27.13;;;19.37;;
20824;SDS011;10573;50.936;6.978;2024-03-08T03:02:10;31.40;;;20.45;;
20824;SDS011;10573;50.936;6.978;2024-03-08T03:04:39;29.77;;;19.83;;
20824;SDS011;10573;50.936;6.978;2024-03-08T03:07:05;27.92;;;19.10;;
20824;SDS011;10573;50.936;6.978;2024-03-08T03:09:30;28.80;;;19.57;;
20824;SDS011;10573;50.936;6.978;2024-03-08T03:11:58;28.10;;;19.35;;
20824;SDS011;10573;50.936;6.978;2024-03-08T03:14:26;26.40;;;18.83;;
20824;SDS011;10573;50.936;6.978;2024-03-08T03:16:54;28.83;;;19.33;;
20824;SDS011;10573;50.936;6.978;2024-03-08T03:19:20;27.73;;;19.20;;
20824;SDS011;10573;50.936;6.978;2024-03-08T03:21:46;28.67;;;19.20;;
20824;SDS011;10573;50.936;6.978;2024-03-08T03:24:12;29.23;;;19.20;;
20824;SDS011;10573;50.936;6.978;2024-03-08T03:26:41;27.90;;;19.00;;
20824;SDS011;10573;50.936;6.978;2024-03-08T03:29:08;27.25;;;19.42;;
20824;SDS011;10573;50.936;6.978;2024-03-08T03:31:36;29.63;;;19.73;;
20824;SDS011;10573;50.936;6.978;2024-03-08T03:34:01;32.55;;;19.77;;
20824;SDS011;10573;50.936;6.978;2024-03-08T03:36:29;28.83;;;19.15;;
20824;SDS011;10573;50.936;6.978;2024-03-08T03:38:57;29.70;;;19.25;;
20824;SDS011;10573;50.936;6.978;2024-03-08T03:41:34;26.90;;;18.90;;
20824;SDS011;10573;50.936;6.978;2024-03-08T03:44:00;33.00;;;19.47;;
20824;SDS011;10573;50.936;6.978;2024-03-08T03:46:25;30.70;;;19.20;;
20824;SDS011;10573;50.936;6.978;2024-03-08T03:48:52;29.08;;;19.80;;
20824;SDS011;10573;50.936;6.978;2024-03-08T03:51:18;30.20;;;20.20;;
20824;SDS011;10573;50.936;6.978;2024-03-08T03:53:44;27.23;;;19.58;;
20824;SDS011;10573;50.936;6.978;2024-03-08T03:56:09;28.67;;;18.87;;
20824;SDS011;10573;50.936;6.978;2024-03-08T03:58:35;31.58;;;19.88;;
20824;SDS011;10573;50.936;6.978;2024-03-08T04:01:01;31.48;;;20.00;;
20824;SDS011;10573;50.936;6.978;2024-03-08T04:03:26;29.77;;;19.57;;
20824;SDS011;10573;50.936;6.978;2024-03-08T04:05:52;30.53;;;20.63;;
20824;SDS011;10573;50.936;6.978;2024-03-08T04:08:17;27.25;;;19.13;;
20824;SDS011;10573;50.936;6.978;2024-03-08T04:10:42;31.83;;;20.37;;
20824;SDS011;10573;50.936;6.978;2024-03-08T04:13:08;27.90;;;19.60;;
20824;SDS011;10573;50.936;6.978;2024-03-08T04:15:34;29.63;;;19.88;;
20824;SDS011;10573;50.936;6.978;2024-03-08T04:18:00;29.90;;;20.02;;
20824;SDS011;10573;50.936;6.978;2024-03-08T04:20:26;28.92;;;20.00;;
20824;SDS011;10573;50.936;6.978;2024-03-08T04:22:51;29.45;;;20.25;;
20824;SDS011;10573;50.936;6.978;2024-03-08T04:25:17;28.93;;;20.17;;
20824;SDS011;10573;50.936;6.978;2024-03-08T04:27:42;29.30;;;19.60;;
20824;SDS011;10573;50.936;6.978;2024-03-08T04:30:08;29.27;;;20.07;;
20824;SDS011;10573;50.936;6.978;2024-03-08T04:32:34;29.80;;;19.40;;
20824;SDS011;10573;50.936;6.978;2024-03-08T04:34:59;29.67;;;19.50;;
20824;SDS011;10573;50.936;6.978;2024-03-08T04:37:28;27.33;;;19.15;;
20824;SDS011;10573;50.936;6.978;2024-03-08T04:39:57;29.13;;;19.80;;
20824;SDS011;10573;50.936;6.978;2024-03-08T04:42:23;30.00;;;19.90;;
20824;SDS011;10573;50.936;6.978;2024-03-08T04:44:49;30.23;;;20.25;;
20824;SDS011;10573;50.936;6.978;2024-03-08T04:47:14;29.35;;;19.45;;
20824;SDS011;10573;50.936;6.978;2024-03-08T04:49:39;29.40;;;19.20;;
20824;SDS011;10573;50.936;6.978;2024-03-08T04:52:05;29.93;;;20.47;;
20824;SDS011;10573;50.936;6.978;2024-03-08T04:54:31;29.50;;;19.90;;
20824;SDS011;10573;50.936;6.978;2024-03-08T04:56:57;28.02;;;19.15;;
20824;SDS011;10573;50.936;6.978;2024-03-08T04:59:25;31.88;;;19.88;;
20824;SDS011;10573;50.936;6.978;2024-03-08T05:01:51;29.77;;;19.60;;
20824;SDS011;10573;50.936;6.978;2024-03-08T05:04:17;29.45;;;19.52;;
20824;SDS011;10573;50.936;6.978;2024-03-08T05:06:42;30.67;;;20.17;;
20824;SDS011;10573;50.936;6.978;2024-03-08T05:09:07;28.70;;;19.80;;
20824;SDS011;10573;50.936;6.978;2024-03-08T05:11:39;29.55;;;19.55;;
20824;SDS011;10573;50.936;6.978;2024-03-08T05:14:05;29.55;;;19.58;;
20824;SDS011;10573;50.936;6.978;2024-03-08T05:16:31;29.80;;;19.00;;
20824;SDS011;10573;50.936;6.978;2024-03-08T05:18:56;29.07;;;20.10;;
20824;SDS011;10573;50.936;6.978;2024-03-08T05:21:22;33.13;;;20.73;;
20824;SDS011;10573;50.936;6.978;2024-03-08T05:23:49;30.25;;;19.83;;
20824;SDS011;10573;50.936;6.978;2024-03-08T05:26:15;31.63;;;20.50;;
20824;SDS011;10573;50.936;6.978;2024-03-08T05:28:41;29.77;;;19.83;;
20824;SDS011;10573;50.936;6.978;2024-03-08T05:31:07;31.00;;;20.80;;
20824;SDS011;10573;50.936;6.978;2024-03-08T05:33:32;30.20;;;19.30;;
20824;SDS011;10573;50.936;6.978;2024-03-08T05:35:59;32.30;;;20.13;;
20824;SDS011;10573;50.936;6.978;2024-03-08T05:38:25;30.65;;;20.38;;
20824;SDS011;10573;50.936;6.978;2024-03-08T05:40:51;33.78;;;20.10;;
20824;SDS011;10573;50.936;6.978;2024-03-08T05:43:17;34.93;;;20.83;;
20824;SDS011;10573;50.936;6.978;2024-03-08T05:45:44;31.40;;;20.90;;
20824;SDS011;10573;50.936;6.978;2024-03-08T05:48:10;30.88;;;20.65;;
20824;SDS011;10573;50.936;6.978;2024-03-08T05:50:37;30.73;;;20.20;;
20824;SDS011;10573;50.936;6.978;2024-03-08T05:53:03;30.48;;;20.30;;
20824;SDS011;10573;50.936;6.978;2024-03-08T05:55:32;32.35;;;21.17;;
20824;SDS011;10573;50.936;6.978;2024-03-08T05:58:00;34.90;;;21.40;;
20824;SDS011;10573;50.936;6.978;2024-03-08T06:00:26;34.85;;;21.85;;
20824;SDS011;10573;50.936;6.978;2024-03-08T06:02:52;33.13;;;21.37;;
20824;SDS011;10573;50.936;6.978;2024-03-08T06:05:17;33.13;;;21.47;;
20824;SDS011;10573;50.936;6.978;2024-03-08T06:07:43;34.13;;;21.93;;
20824;SDS011;10573;50.936;6.978;2024-03-08T06:10:09;34.60;;;21.20;;
20824;SDS011;10573;50.936;6.978;2024-03-08T06:12:36;35.50;;;22.02;;
20824;SDS011;10573;50.936;6.978;2024-03-08T06:15:08;32.65;;;21.00;;
20824;SDS011;10573;50.936;6.978;2024-03-08T06:17:35;32.88;;;21.52;;
20824;SDS011;10573;50.936;6.978;2024-03-08T06:20:01;33.92;;;21.95;;
20824;SDS011;10573;50.936;6.978;2024-03-08T06:22:30;34.80;;;21.90;;
20824;SDS011;10573;50.936;6.978;2024-03-08T06:24:55;36.78;;;22.52;;
20824;SDS011;10573;50.936;6.978;2024-03-08T06:27:21;35.28;;;21.10;;
20824;SDS011;10573;50.936;6.978;2024-03-08T06:29:47;31.53;;;21.80;;
20824;SDS011;10573;50.936;6.978;2024-03-08T06:32:14;36.88;;;22.35;;
20824;SDS011;10573;50.936;6.978;2024-03-08T06:34:40;37.17;;;21.67;;
20824;SDS011;10573;50.936;6.978;2024-03-08T06:37:06;38.10;;;22.77;;
20824;SDS011;10573;50.936;6.978;2024-03-08T06:39:31;37.07;;;22.80;;
20824;SDS011;10573;50.936;6.978;2024-03-08T06:41:57;34.80;;;22.35;;
20824;SDS011;10573;50.936;6.978;2024-03-08T06:44:23;34.93;;;23.10;;
20824;SDS011;10573;50.936;6.978;2024-03-08T06:46:48;36.90;;;21.48;;
20824;SDS011;10573;50.936;6.978;2024-03-08T06:49:14;38.90;;;21.88;;
20824;SDS011;10573;50.936;6.978;2024-03-08T06:51:40;39.35;;;22.25;;
20824;SDS011;10573;50.936;6.978;2024-03-08T06:54:06;37.60;;;21.87;;
20824;SDS011;10573;50.936;6.978;2024-03-08T06:56:34;35.97;;;21.23;;
20824;SDS011;10573;50.936;6.978;2024-03-08T06:59:00;37.35;;;22.15;;
20824;SDS011;10573;50.936;6.978;2024-03-08T07:01:25;35.53;;;21.70;;
20824;SDS011;10573;50.936;6.978;2024-03-08T07:03:50;32.40;;;21.57;;
20824;SDS011;10573;50.936;6.978;2024-03-08T07:06:18;38.17;;;21.30;;
20824;SDS011;10573;50.936;6.978;2024-03-08T07:08:44;32.20;;;21.02;;
20824;SDS011;10573;50.936;6.978;2024-03-08T07:11:11;35.40;;;22.13;;
20824;SDS011;10573;50.936;6.978;2024-03-08T07:13:37;34.33;;;21.77;;
20824;SDS011;10573;50.936;6.978;2024-03-08T07:16:04;35.53;;;21.67;;
20824;SDS011;10573;50.936;6.978;2024-03-08T07:18:30;34.20;;;22.17;;
20824;SDS011;10573;50.936;6.978;2024-03-08T07:20:56;33.20;;;21.15;;
20824;SDS011;10573;50.936;6.978;2024-03-08T07:23:22;31.80;;;20.10;;
20824;SDS011;10573;50.936;6.978;2024-03-08T07:26:07;30.73;;;20.25;;
20824;SDS011;10573;50.936;6.978;2024-03-08T07:28:33;31.60;;;20.80;;
20824;SDS011;10573;50.936;6.978;2024-03-08T07:30:58;31.50;;;20.53;;
20824;SDS011;10573;50.936;6.978;2024-03-08T07:33:43;34.92;;;21.05;;
20824;SDS011;10573;50.936;6.978;2024-03-08T07:36:08;30.25;;;19.92;;
20824;SDS011;10573;50.936;6.978;2024-03-08T07:38:33;31.50;;;20.43;;
20824;SDS011;10573;50.936;6.978;2024-03-08T07:40:59;30.15;;;19.75;;
20824;SDS011;10573;50.936;6.978;2024-03-08T07:43:25;29.07;;;18.83;;
20824;SDS011;10573;50.936;6.978;2024-03-08T07:45:51;31.30;;;20.87;;
20824;SDS011;10573;50.936;6.978;2024-03-08T07:48:18;28.92;;;19.42;;
20824;SDS011;10573;50.936;6.978;2024-03-08T07:50:43;30.88;;;20.42;;
20824;SDS011;10573;50.936;6.978;2024-03-08T07:53:09;28.73;;;19.70;;
20824;SDS011;10573;50.936;6.978;2024-03-08T07:55:35;27.33;;;18.73;;
20824;SDS011;10573;50.936;6.978;2024-03-08T07:58:01;29.30;;;19.10;;
20824;SDS011;10573;50.936;6.978;2024-03-08T08:00:30;25.33;;;18.30;;
20824;SDS011;10573;50.936;6.978;2024-03-08T08:02:56;27.45;;;19.33;;
20824;SDS011;10573;50.936;6.978;2024-03-08T08:05:22;26.80;;;18.73;;
20824;SDS011;10573;50.936;6.978;2024-03-08T08:07:47;31.87;;;19.67;;
20824;SDS011;10573;50.936;6.978;2024-03-08T08:10:13;27.02;;;18.60;;
20824;SDS011;10573;50.936;6.978;2024-03-08T08:12:47;26.15;;;18.77;;
20824;SDS011;10573;50.936;6.978;2024-03-08T08:15:15;26.83;;;18.20;;
20824;SDS011;10573;50.936;6.978;2024-03-08T08:17:43;26.38;;;18.02;;
20824;SDS011;10573;50.936;6.978;2024-03-08T08:20:12;25.48;;;18.08;;
20824;SDS011;10573;50.936;6.978;2024-03-08T08:22:39;25.23;;;17.65;;
20824;SDS011;10573;50.936;6.978;2024-03-08T08:25:13;26.52;;;18.00;;
20824;SDS011;10573;50.936;6.978;2024-03-08T08:27:45;24.40;;;17.10;;
20824;SDS011;10573;50.936;6.978;2024-03-08T08:30:11;23.03;;;16.93;;
20824;SDS011;10573;50.936;6.978;2024-03-08T08:32:37;22.27;;;16.73;;
20824;SDS011;10573;50.936;6.978;2024-03-08T08:35:04;23.52;;;17.25;;
20824;SDS011;10573;50.936;6.978;2024-03-08T08:37:31;26.63;;;17.80;;
20824;SDS011;10573;50.936;6.978;2024-03-08T08:39:57;22.73;;;16.70;;
20824;SDS011;10573;50.936;6.978;2024-03-08T08:42:25;26.48;;;18.33;;
20824;SDS011;10573;50.936;6.978;2024-03-08T08:44:51;22.92;;;17.13;;
20824;SDS011;10573;50.936;6.978;2024-03-08T08:47:17;25.13;;;16.77;;
20824;SDS011;10573;50.936;6.978;2024-03-08T08:49:44;24.07;;;17.60;;
20824;SDS011;10573;50.936;6.978;2024-03-08T08:52:11;23.77;;;16.52;;
20824;SDS011;10573;50.936;6.978;2024-03-08T08:54:36;23.03;;;16.93;;
20824;SDS011;10573;50.936;6.978;2024-03-08T08:57:02;22.20;;;16.43;;
20824;SDS011;10573;50.936;6.978;2024-03-08T08:59:33;24.43;;;16.83;;
20824;SDS011;10573;50.936;6.978;2024-03-08T09:02:04;22.88;;;16.33;;
20824;SDS011;10573;50.936;6.978;2024-03-08T09:04:30;21.83;;;15.80;;
20824;SDS011;10573;50.936;6.978;2024-03-08T09:06:58;23.38;;;16.40;;
20824;SDS011;10573;50.936;6.978;2024-03-08T09:09:23;23.60;;;16.60;;
20824;SDS011;10573;50.936;6.978;2024-03-08T09:11:50;24.63;;;16.73;;
20824;SDS011;10573;50.936;6.978;2024-03-08T09:14:16;25.90;;;17.00;;
20824;SDS011;10573;50.936;6.978;2024-03-08T09:16:42;24.67;;;16.90;;
20824;SDS011;10573;50.936;6.978;2024-03-08T09:19:07;23.80;;;16.93;;
20824;SDS011;10573;50.936;6.978;2024-03-08T09:21:35;23.08;;;16.77;;
20824;SDS011;10573;50.936;6.978;2024-03-08T09:24:04;26.25;;;17.20;;
20824;SDS011;10573;50.936;6.978;2024-03-08T09:26:31;23.60;;;16.10;;
20824;SDS011;10573;50.936;6.978;2024-03-08T09:28:58;24.85;;;16.17;;
20824;SDS011;10573;50.936;6.978;2024-03-08T09:31:25;23.38;;;15.07;;
20824;SDS011;10573;50.936;6.978;2024-03-08T09:33:51;22.92;;;15.55;;
20824;SDS011;10573;50.936;6.978;2024-03-08T09:36:16;22.13;;;15.88;;
20824;SDS011;10573;50.936;6.978;2024-03-08T09:38:42;22.10;;;15.30;;
20824;SDS011;10573;50.936;6.978;2024-03-08T09:41:08;22.88;;;15.57;;
20824;SDS011;10573;50.936;6.978;2024-03-08T09:43:35;24.45;;;15.13;;
20824;SDS011;10573;50.936;6.978;2024-03-08T09:46:02;21.67;;;14.93;;
20824;SDS011;10573;50.936;6.978;2024-03-08T09:48:28;22.58;;;14.77;;
20824;SDS011;10573;50.936;6.978;2024-03-08T09:50:54;21.60;;;15.07;;
20824;SDS011;10573;50.936;6.978;2024-03-08T09:53:21;21.13;;;14.02;;
20824;SDS011;10573;50.936;6.978;2024-03-08T09:55:47;21.83;;;14.60;;
20824;SDS011;10573;50.936;6.978;2024-03-08T09:58:14;19.75;;;13.43;;
20824;SDS011;10573;50.936;6.978;2024-03-08T10:00:42;19.40;;;13.67;;
20824;SDS011;10573;50.936;6.978;2024-03-08T10:03:08;20.60;;;14.20;;
20824;SDS011;10573;50.936;6.978;2024-03-08T10:05:34;20.42;;;13.15;;
20824;SDS011;10573;50.936;6.978;2024-03-08T10:08:00;19.60;;;13.60;;
20824;SDS011;10573;50.936;6.978;2024-03-08T10:10:25;19.27;;;13.00;;
20824;SDS011;10573;50.936;6.978;2024-03-08T10:12:51;19.00;;;12.80;;
20824;SDS011;10573;50.936;6.978;2024-03-08T10:15:17;14.68;;;11.27;;
20824;SDS011;10573;50.936;6.978;2024-03-08T10:17:42;15.70;;;10.90;;
20824;SDS011;10573;50.936;6.978;2024-03-08T10:20:17;15.20;;;11.00;;
20824;SDS011;10573;50.936;6.978;2024-03-08T10:22:44;19.77;;;11.77;;
20824;SDS011;10573;50.936;6.978;2024-03-08T10:25:13;14.52;;;10.60;;
20824;SDS011;10573;50.936;6.978;2024-03-08T10:27:39;15.50;;;10.75;;
20824;SDS011;10573;50.936;6.978;2024-03-08T10:30:06;14.57;;;10.15;;
20824;SDS011;10573;50.936;6.978;2024-03-08T10:32:39;14.07;;;10.02;;
20824;SDS011;10573;50.936;6.978;2024-03-08T10:35:08;14.30;;;9.77;;
20824;SDS011;10573;50.936;6.978;2024-03-08T10:37:37;14.00;;;10.10;;
20824;SDS011;10573;50.936;6.978;2024-03-08T10:40:12;14.80;;;10.30;;
20824;SDS011;10573;50.936;6.978;2024-03-08T10:45:36;13.73;;;9.95;;
20824;SDS011;10573;50.936;6.978;2024-03-08T10:51:02;16.33;;;9.60;;
20824;SDS011;10573;50.936;6.978;2024-03-08T10:53:28;13.88;;;9.55;;
20824;SDS011;10573;50.936;6.978;2024-03-08T10:55:57;15.13;;;9.80;;
20824;SDS011;10573;50.936;6.978;2024-03-08T10:58:24;12.88;;;9.45;;
20824;SDS011;10573;50.936;6.978;2024-03-08T11:00:55;18.63;;;10.13;;
20824;SDS011;10573;50.936;6.978;2024-03-08T11:06:13;13.60;;;9.85;;
20824;SDS011;10573;50.936;6.978;2024-03-08T11:08:41;14.35;;;10.20;;
20824;SDS011;10573;50.936;6.978;2024-03-08T11:11:22;14.68;;;10.45;;
20824;SDS011;10573;50.936;6.978;2024-03-08T11:13:56;16.95;;;10.50;;
20824;SDS011;10573;50.936;6.978;2024-03-08T11:18:54;16.13;;;10.38;;
20824;SDS011;10573;50.936;6.978;2024-03-08T11:21:25;14.38;;;10.23;;
20824;SDS011;10573;50.936;6.978;2024-03-08T11:24:07;15.45;;;9.90;;
20824;SDS011;10573;50.936;6.978;2024-03-08T11:26:38;11.88;;;9.40;;
20824;SDS011;10573;50.936;6.978;2024-03-08T11:32:07;13.57;;;9.80;;
20824;SDS011;10573;50.936;6.978;2024-03-08T11:34:47;13.52;;;9.30;;
20824;SDS011;10573;50.936;6.978;2024-03-08T11:37:18;14.32;;;9.77;;
20824;SDS011;10573;50.936;6.978;2024-03-08T11:39:52;14.98;;;9.55;;
20824;SDS011;10573;50.936;6.978;2024-03-08T11:42:24;13.60;;;9.93;;
20824;SDS011;10573;50.936;6.978;2024-03-08T11:44:51;13.07;;;10.07;;
20824;SDS011;10573;50.936;6.978;2024-03-08T11:47:17;12.68;;;9.45;;
20824;SDS011;10573;50.936;6.978;2024-03-08T11:49:43;12.10;;;9.02;;
20824;SDS011;10573;50.936;6.978;2024-03-08T11:52:16;10.95;;;8.70;;
20824;SDS011;10573;50.936;6.978;2024-03-08T11:54:42;13.13;;;9.27;;
20824;SDS011;10573;50.936;6.978;2024-03-08T11:57:17;12.70;;;9.25;;
20824;SDS011;10573;50.936;6.978;2024-03-08T11:59:49;11.00;;;8.55;;
20824;SDS011;10573;50.936;6.978;2024-03-08T12:02:16;10.98;;;8.38;;
20824;SDS011;10573;50.936;6.978;2024-03-08T12:04:41;10.23;;;8.13;;
20824;SDS011;10573;50.936;6.978;2024-03-08T12:07:09;10.32;;;8.30;;
20824;SDS011;10573;50.936;6.978;2024-03-08T12:09:36;10.98;;;8.77;;
20824;SDS011;10573;50.936;6.978;2024-03-08T12:12:02;11.10;;;8.53;;
20824;SDS011;10573;50.936;6.978;2024-03-08T12:14:32;11.52;;;8.60;;
20824;SDS011;10573;50.936;6.978;2024-03-08T12:16:58;13.48;;;8.50;;
20824;SDS011;10573;50.936;6.978;2024-03-08T12:19:26;10.80;;;8.77;;
20824;SDS011;10573;50.936;6.978;2024-03-08T12:21:55;11.27;;;8.80;;
20824;SDS011;10573;50.936;6.978;2024-03-08T12:24:20;12.70;;;9.30;;
20824;SDS011;10573;50.936;6.978;2024-03-08T12:26:46;11.13;;;8.95;;
20824;SDS011;10573;50.936;6.978;2024-03-08T12:29:25;10.37;;;8.83;;
20824;SDS011;10573;50.936;6.978;2024-03-08T12:31:57;10.50;;;8.52;;
20824;SDS011;10573;50.936;6.978;2024-03-08T12:34:26;12.02;;;8.65;;
20824;SDS011;10573;50.936;6.978;2024-03-08T12:36:57;10.32;;;8.40;;
20824;SDS011;10573;50.936;6.978;2024-03-08T12:39:23;10.55;;;8.77;;
20824;SDS011;10573;50.936;6.978;2024-03-08T12:41:53;10.27;;;8.45;;
20824;SDS011;10573;50.936;6.978;2024-03-08T12:44:20;9.57;;;7.97;;
20824;SDS011;10573;50.936;6.978;2024-03-08T12:46:47;10.23;;;8.13;;
20824;SDS011;10573;50.936;6.978;2024-03-08T12:49:13;11.35;;;8.50;;
20824;SDS011;10573;50.936;6.978;2024-03-08T12:51:42;9.60;;;8.60;;
20824;SDS011;10573;50.936;6.978;2024-03-08T12:54:08;11.82;;;8.27;;
20824;SDS011;10573;50.936;6.978;2024-03-08T12:56:35;11.07;;;9.10;;
20824;SDS011;10573;50.936;6.978;2024-03-08T12:59:02;9.57;;;8.25;;
20824;SDS011;10573;50.936;6.978;2024-03-08T13:01:33;11.43;;;8.73;;
20824;SDS011;10573;50.936;6.978;2024-03-08T13:03:59;11.27;;;7.57;;
20824;SDS011;10573;50.936;6.978;2024-03-08T13:06:28;10.40;;;8.20;;
20824;SDS011;10573;50.936;6.978;2024-03-08T13:08:54;10.88;;;8.07;;
20824;SDS011;10573;50.936;6.978;2024-03-08T13:11:20;10.57;;;7.95;;
20824;SDS011;10573;50.936;6.978;2024-03-08T13:13:47;9.30;;;8.10;;
20824;SDS011;10573;50.936;6.978;2024-03-08T13:16:12;9.48;;;8.15;;
20824;SDS011;10573;50.936;6.978;2024-03-08T13:18:42;10.27;;;8.10;;
20824;SDS011;10573;50.936;6.978;2024-03-08T13:21:08;9.27;;;7.77;;
20824;SDS011;10573;50.936;6.978;2024-03-08T13:23:36;8.82;;;7.43;;
20824;SDS011;10573;50.936;6.978;2024-03-08T13:26:08;10.13;;;8.02;;
20824;SDS011;10573;50.936;6.978;2024-03-08T13:28:37;8.57;;;7.53;;
20824;SDS011;10573;50.936;6.978;2024-03-08T13:31:06;9.30;;;7.57;;
20824;SDS011;10573;50.936;6.978;2024-03-08T13:33:32;9.45;;;7.50;;
20824;SDS011;10573;50.936;6.978;2024-03-08T13:36:00;9.30;;;7.45;;
20824;SDS011;10573;50.936;6.978;2024-03-08T13:38:27;12.48;;;7.65;;
20824;SDS011;10573;50.936;6.978;2024-03-08T13:40:52;7.97;;;7.17;;
20824;SDS011;10573;50.936;6.978;2024-03-08T13:43:18;9.70;;;7.43;;
20824;SDS011;10573;50.936;6.978;2024-03-08T13:45:43;9.33;;;7.37;;
20824;SDS011;10573;50.936;6.978;2024-03-08T13:48:09;10.37;;;7.67;;
20824;SDS011;10573;50.936;6.978;2024-03-08T13:50:37;9.07;;;7.50;;
20824;SDS011;10573;50.936;6.978;2024-03-08T13:53:03;9.40;;;6.93;;
20824;SDS011;10573;50.936;6.978;2024-03-08T13:55:29;10.07;;;7.63;;
20824;SDS011;10573;50.936;6.978;2024-03-08T13:57:56;8.73;;;7.33;;
20824;SDS011;10573;50.936;6.978;2024-03-08T14:00:22;8.65;;;7.35;;
20824;SDS011;10573;50.936;6.978;2024-03-08T14:02:52;9.38;;;7.35;;
20824;SDS011;10573;50.936;6.978;2024-03-08T14:05:19;8.77;;;7.13;;
20824;SDS011;10573;50.936;6.978;2024-03-08T14:07:45;9.70;;;7.13;;
20824;SDS011;10573;50.936;6.978;2024-03-08T14:10:14;9.80;;;7.82;;
20824;SDS011;10573;50.936;6.978;2024-03-08T14:12:40;9.10;;;7.57;;
20824;SDS011;10573;50.936;6.978;2024-03-08T14:15:05;9.13;;;7.03;;
20824;SDS011;10573;50.936;6.978;2024-03-08T14:17:32;8.18;;;7.35;;
20824;SDS011;10573;50.936;6.978;2024-03-08T14:19:58;8.80;;;7.40;;
20824;SDS011;10573;50.936;6.978;2024-03-08T14:22:24;9.50;;;8.10;;
20824;SDS011;10573;50.936;6.978;2024-03-08T14:24:49;9.05;;;7.63;;
20824;SDS011;10573;50.936;6.978;2024-03-08T14:27:17;9.53;;;7.47;;
20824;SDS011;10573;50.936;6.978;2024-03-08T14:29:43;9.43;;;7.80;;
20824;SDS011;10573;50.936;6.978;2024-03-08T14:32:09;8.85;;;7.85;;
20824;SDS011;10573;50.936;6.978;2024-03-08T14:34:35;11.35;;;7.97;;
20824;SDS011;10573;50.936;6.978;2024-03-08T14:37:01;10.88;;;8.80;;
20824;SDS011;10573;50.936;6.978;2024-03-08T14:39:30;10.48;;;8.80;;
20824;SDS011;10573;50.936;6.978;2024-03-08T14:41:58;11.10;;;8.90;;